Time;durP1;ratioP1;P1;durP2;ratioP2;P2;SDS_P1;SDS_P2;PMS_P1;PMS_P2;Temp;Humidity;BMP_temperature;BMP_pressure;BME280_temperature;BME280_humidity;BME280_pressure;Samples;Min_cycle;Max_cycle;Signal;HPM_P1;HPM_P2
2023/10/30 00:00:11;;;;;;;8.53;1.90;;;12.30;99.90;;;;;;5052074;28;20556;-66
2023/10/30 00:02:39;;;;;;;6.50;1.90;;;12.30;99.90;;;;;;5055622;28;20581;-66
2023/10/30 00:05:07;;;;;;;7.67;2.70;;;12.30;99.90;;;;;;5080681;28;20514;-67
2023/10/30 00:07:34;;;;;;;6.90;2.33;;;12.30;99.90;;;;;;5073659;28;20576;-69
2023/10/30 00:10:01;;;;;;;4.43;1.50;;;12.40;99.90;;;;;;5055725;28;20506;-66
2023/10/30 00:12:28;;;;;;;35.03;3.50;;;12.40;99.90;;;;;;5052197;28;20486;-66
2023/10/30 00:14:55;;;;;;;4.90;1.97;;;12.40;99.90;;;;;;5045160;28;20467;-68
2023/10/30 00:17:24;;;;;;;3.37;1.20;;;12.40;99.90;;;;;;5044632;28;20691;-65
2023/10/30 00:19:51;;;;;;;6.40;1.60;;;12.40;99.90;;;;;;5075738;28;20483;-66
2023/10/30 00:22:19;;;;;;;5.20;1.77;;;;;;;;;;5046248;28;20736;-66
2023/10/30 00:24:47;;;;;;;7.70;1.47;;;12.30;99.90;;;;;;5078643;28;20901;-72
2023/10/30 00:27:16;;;;;;;8.80;1.70;;;12.40;99.90;;;;;;5053734;28;20908;-66
2023/10/30 00:29:44;;;;;;;4.63;1.00;;;12.40;99.90;;;;;;5040612;28;20482;-66
2023/10/30 00:32:12;;;;;;;3.67;1.73;;;12.40;99.90;;;;;;5054266;28;20516;-66
2023/10/30 00:34:42;;;;;;;6.17;2.10;;;12.40;99.90;;;;;;5058655;28;20478;-65
2023/10/30 00:37:12;;;;;;;5.77;2.20;;;12.40;99.90;;;;;;5062463;28;20862;-65
2023/10/30 00:39:40;;;;;;;10.30;1.53;;;12.30;99.90;;;;;;5026417;28;20661;-69
2023/10/30 00:42:08;;;;;;;12.40;1.90;;;12.40;99.90;;;;;;5078782;28;20479;-72
2023/10/30 00:44:37;;;;;;;4.60;1.30;;;12.50;99.90;;;;;;5053889;28;20878;-69
2023/10/30 00:47:06;;;;;;;11.90;1.83;;;12.50;99.90;;;;;;5053939;28;20482;-70
2023/10/30 00:49:34;;;;;;;2.30;1.00;;;12.50;99.90;;;;;;5057473;28;20477;-68
2023/10/30 00:52:04;;;;;;;4.57;1.80;;;12.50;99.90;;;;;;5050594;28;20501;-65
2023/10/30 00:54:32;;;;;;;6.47;1.23;;;12.40;99.90;;;;;;5051622;28;20508;-65
2023/10/30 00:57:00;;;;;;;10.83;1.47;;;12.50;99.90;;;;;;5055901;28;20477;-65
2023/10/30 00:59:28;;;;;;;8.80;1.63;;;12.50;99.90;;;;;;5052299;28;20471;-68
2023/10/30 01:01:56;;;;;;;24.03;2.40;;;12.50;99.90;;;;;;5052897;28;20510;-69
2023/10/30 01:04:26;;;;;;;9.47;1.60;;;12.50;99.90;;;;;;5054461;28;21170;-69
2023/10/30 01:06:54;;;;;;;4.77;1.23;;;12.50;99.90;;;;;;5070344;28;20485;-68
2023/10/30 01:09:22;;;;;;;5.30;1.10;;;12.70;99.90;;;;;;5053252;28;20561;-66
2023/10/30 01:11:49;;;;;;;5.37;1.53;;;12.70;99.90;;;;;;5047061;28;20574;-65
2023/10/30 01:14:16;;;;;;;22.57;2.33;;;12.70;99.90;;;;;;5058148;28;20551;-65
2023/10/30 01:16:44;;;;;;;3.67;1.03;;;12.70;99.90;;;;;;5046794;28;20612;-65
2023/10/30 01:19:10;;;;;;;11.43;1.80;;;12.80;99.90;;;;;;5071643;28;21114;-72
2023/10/30 01:21:38;;;;;;;9.60;1.67;;;12.60;99.90;;;;;;5048731;28;20481;-69
2023/10/30 01:24:06;;;;;;;7.73;2.43;;;12.80;99.90;;;;;;5051319;28;20568;-68
2023/10/30 01:26:34;;;;;;;6.27;1.27;;;12.70;99.90;;;;;;5057963;28;20463;-71
2023/10/30 01:29:02;;;;;;;14.97;1.87;;;12.70;99.90;;;;;;5038592;28;20479;-64
2023/10/30 01:31:29;;;;;;;2.87;1.00;;;12.80;99.90;;;;;;5067185;28;20500;-64
2023/10/30 01:33:56;;;;;;;2.37;1.30;;;12.80;99.90;;;;;;5046046;28;21205;-67
2023/10/30 01:36:22;;;;;;;7.43;1.20;;;12.80;99.90;;;;;;5061573;28;20466;-66
2023/10/30 01:38:50;;;;;;;11.77;1.50;;;12.70;99.90;;;;;;5047274;28;21353;-65
2023/10/30 01:41:16;;;;;;;4.07;0.90;;;12.70;99.90;;;;;;5039713;28;20490;-66
2023/10/30 01:43:45;;;;;;;6.40;1.83;;;12.60;99.90;;;;;;5044770;28;20501;-65
2023/10/30 01:46:12;;;;;;;2.70;1.13;;;12.50;99.90;;;;;;5058343;28;20913;-66
2023/10/30 01:48:39;;;;;;;9.70;1.50;;;12.40;99.90;;;;;;5073587;28;20481;-65
2023/10/30 01:51:06;;;;;;;5.07;1.63;;;12.40;99.90;;;;;;5074321;28;21037;-65
2023/10/30 01:53:34;;;;;;;9.60;1.87;;;12.40;99.90;;;;;;5044189;28;20481;-65
2023/10/30 01:56:03;;;;;;;11.73;1.37;;;12.40;99.90;;;;;;5046941;28;20950;-64
2023/10/30 01:58:31;;;;;;;2.23;0.90;;;12.40;99.90;;;;;;5050054;28;20574;-67
2023/10/30 02:01:09;;;;;;;4.73;1.20;;;12.50;99.90;;;;;;5047652;28;21854;-66
2023/10/30 02:03:36;;;;;;;6.77;1.43;;;12.50;99.90;;;;;;5037241;28;20607;-64
2023/10/30 02:06:03;;;;;;;2.57;0.93;;;12.60;99.90;;;;;;5045952;28;20471;-64
2023/10/30 02:08:30;;;;;;;3.83;1.20;;;12.50;99.90;;;;;;5035613;28;20541;-65
2023/10/30 02:10:57;;;;;;;9.97;1.43;;;12.60;99.90;;;;;;5037106;28;20560;-68
2023/10/30 02:13:24;;;;;;;4.37;0.90;;;12.60;99.90;;;;;;5055153;28;21418;-69
2023/10/30 02:15:50;;;;;;;3.37;1.03;;;12.60;99.90;;;;;;5079921;28;20448;-68
2023/10/30 02:18:18;;;;;;;2.00;0.90;;;12.70;99.90;;;;;;5067590;28;20877;-70
2023/10/30 02:20:46;;;;;;;2.07;0.97;;;12.70;99.90;;;;;;5088144;28;20563;-65
2023/10/30 02:23:13;;;;;;;14.43;1.90;;;12.90;99.90;;;;;;5060324;28;20489;-67
2023/10/30 02:25:41;;;;;;;9.53;1.33;;;12.90;99.90;;;;;;5055994;28;20482;-66
2023/10/30 02:28:08;;;;;;;1.87;0.70;;;12.90;99.90;;;;;;5055767;28;20970;-66
2023/10/30 02:30:35;;;;;;;1.97;0.80;;;12.80;99.90;;;;;;5062892;28;20562;-66
2023/10/30 02:33:01;;;;;;;4.60;0.70;;;12.80;99.90;;;;;;5054068;28;20476;-65
2023/10/30 02:35:28;;;;;;;3.03;1.00;;;12.80;99.90;;;;;;5059763;28;20508;-66
2023/10/30 02:37:55;;;;;;;11.03;1.37;;;12.80;99.90;;;;;;5072527;28;20571;-65
2023/10/30 02:40:22;;;;;;;6.30;1.27;;;12.80;99.90;;;;;;5067154;28;20462;-66
2023/10/30 02:42:51;;;;;;;1.87;1.20;;;12.70;99.90;;;;;;5060632;28;20489;-65
2023/10/30 02:45:18;;;;;;;8.93;1.27;;;12.70;99.90;;;;;;5076225;28;21071;-65
2023/10/30 02:47:44;;;;;;;2.60;1.40;;;12.60;99.90;;;;;;5056594;28;20473;-65
2023/10/30 02:50:12;;;;;;;8.00;1.17;;;12.60;99.90;;;;;;5079088;28;20536;-66
2023/10/30 02:52:39;;;;;;;2.70;1.00;;;12.70;99.90;;;;;;5074227;28;20481;-69
2023/10/30 02:55:13;;;;;;;3.00;0.90;;;12.60;99.90;;;;;;5059556;28;20554;-67
2023/10/30 02:57:40;;;;;;;39.27;3.30;;;12.70;99.90;;;;;;5043397;28;20537;-66
2023/10/30 03:00:09;;;;;;;3.30;1.13;;;12.60;99.90;;;;;;5062382;28;20451;-67
2023/10/30 03:02:35;;;;;;;2.57;1.37;;;12.70;99.90;;;;;;5064087;28;21240;-66
2023/10/30 03:05:02;;;;;;;1.90;0.87;;;12.70;99.90;;;;;;5061047;28;20485;-65
2023/10/30 03:07:29;;;;;;;1.70;1.00;;;12.60;99.90;;;;;;5029676;28;21073;-65
2023/10/30 03:09:56;;;;;;;9.57;1.63;;;12.80;99.90;;;;;;5083639;28;20824;-65
2023/10/30 03:12:23;;;;;;;6.80;1.17;;;12.90;99.90;;;;;;5077612;28;25270;-66
2023/10/30 03:14:50;;;;;;;3.17;0.90;;;12.80;99.90;;;;;;5078010;28;20538;-66
2023/10/30 03:17:18;;;;;;;4.90;0.97;;;12.90;99.90;;;;;;5059049;28;20477;-67
2023/10/30 03:19:45;;;;;;;7.23;1.17;;;;;;;;;;5077191;28;20599;-66
2023/10/30 03:22:12;;;;;;;2.33;0.90;;;13.00;99.90;;;;;;5059536;28;20899;-67
2023/10/30 03:24:38;;;;;;;3.10;1.00;;;12.90;99.90;;;;;;5068368;28;20578;-67
2023/10/30 03:27:06;;;;;;;2.40;1.00;;;;;;;;;;5054577;28;20479;-67
2023/10/30 03:29:36;;;;;;;2.10;1.03;;;12.90;99.90;;;;;;5093200;28;20599;-67
2023/10/30 03:32:03;;;;;;;12.33;1.90;;;13.00;99.90;;;;;;5057643;28;20463;-65
2023/10/30 03:34:31;;;;;;;4.07;1.07;;;13.00;99.90;;;;;;5070233;28;20583;-66
2023/10/30 03:36:58;;;;;;;2.73;1.10;;;13.00;99.90;;;;;;5064249;28;20481;-66
2023/10/30 03:39:25;;;;;;;5.10;1.10;;;13.00;99.90;;;;;;5084374;28;20497;-68
2023/10/30 03:41:51;;;;;;;1.63;0.80;;;13.00;99.90;;;;;;5068542;28;21189;-65
2023/10/30 03:44:19;;;;;;;3.00;1.73;;;13.10;99.90;;;;;;5083154;28;20474;-67
2023/10/30 03:46:46;;;;;;;7.70;1.47;;;13.20;99.90;;;;;;5058897;28;20819;-66
2023/10/30 03:49:13;;;;;;;2.90;0.80;;;13.20;99.90;;;;;;5058088;28;20572;-71
2023/10/30 03:51:41;;;;;;;3.40;1.00;;;13.30;99.90;;;;;;5077428;28;20496;-69
2023/10/30 03:54:09;;;;;;;6.60;1.00;;;13.30;99.90;;;;;;5036674;28;20561;-72
2023/10/30 03:56:35;;;;;;;2.43;1.83;;;13.30;99.90;;;;;;5074373;28;20914;-67
2023/10/30 03:59:03;;;;;;;1.90;0.80;;;13.20;99.90;;;;;;5061928;28;20554;-71
2023/10/30 04:01:30;;;;;;;2.13;1.00;;;13.20;99.90;;;;;;5049480;28;20587;-70
2023/10/30 04:03:57;;;;;;;2.03;0.90;;;13.20;99.90;;;;;;5049056;28;20485;-70
2023/10/30 04:06:24;;;;;;;17.90;1.93;;;13.30;99.90;;;;;;5077447;28;20965;-71
2023/10/30 04:08:52;;;;;;;3.00;0.83;;;13.30;99.90;;;;;;5061374;28;20486;-69
2023/10/30 04:11:19;;;;;;;2.00;0.90;;;13.20;99.90;;;;;;5059167;28;20889;-69
2023/10/30 04:13:45;;;;;;;8.10;1.20;;;13.20;99.90;;;;;;5057927;28;20561;-72
2023/10/30 04:16:15;;;;;;;6.60;1.00;;;13.20;99.90;;;;;;5060474;28;20556;-70
2023/10/30 04:18:42;;;;;;;1.70;0.70;;;13.20;99.90;;;;;;5058205;28;21008;-70
2023/10/30 04:21:09;;;;;;;5.70;1.40;;;13.30;99.90;;;;;;5069127;28;20473;-73
2023/10/30 04:23:36;;;;;;;3.73;1.10;;;13.20;99.90;;;;;;5064965;28;20486;-72
2023/10/30 04:26:05;;;;;;;12.50;1.30;;;13.20;99.90;;;;;;5059698;28;20514;-71
2023/10/30 04:28:31;;;;;;;7.33;1.27;;;12.90;99.90;;;;;;5059688;28;20555;-69
2023/10/30 04:30:58;;;;;;;3.90;1.00;;;13.00;99.90;;;;;;5054583;28;20542;-69
2023/10/30 04:33:25;;;;;;;3.20;0.80;;;12.90;99.90;;;;;;5066174;28;20514;-69
2023/10/30 04:35:53;;;;;;;4.00;0.90;;;12.80;99.90;;;;;;5054932;28;20487;-68
2023/10/30 04:38:20;;;;;;;1.80;1.00;;;12.80;99.90;;;;;;5050228;28;20487;-70
2023/10/30 04:40:47;;;;;;;27.30;2.40;;;12.70;99.90;;;;;;5081312;28;20644;-67
2023/10/30 04:43:15;;;;;;;2.90;0.80;;;12.70;99.90;;;;;;5083409;28;20540;-68
2023/10/30 04:45:42;;;;;;;6.60;1.10;;;12.80;99.90;;;;;;5052792;28;21017;-67
2023/10/30 04:48:09;;;;;;;4.50;0.97;;;;;;;;;;5068246;28;20485;-67
2023/10/30 04:50:36;;;;;;;2.53;0.93;;;12.90;99.90;;;;;;5059911;28;20577;-66
2023/10/30 04:53:03;;;;;;;2.77;0.80;;;12.90;99.90;;;;;;5074934;28;21060;-66
2023/10/30 04:55:29;;;;;;;4.53;2.30;;;13.10;99.90;;;;;;5058595;28;20562;-66
2023/10/30 04:57:56;;;;;;;7.67;1.40;;;13.10;99.90;;;;;;5049180;28;20461;-66
2023/10/30 05:00:24;;;;;;;1.90;0.90;;;13.10;99.90;;;;;;5085010;28;20570;-66
2023/10/30 05:02:51;;;;;;;6.17;1.30;;;13.10;99.90;;;;;;5073451;28;20567;-65
2023/10/30 05:05:18;;;;;;;5.20;0.90;;;13.10;99.90;;;;;;5044015;28;20450;-66
2023/10/30 05:07:45;;;;;;;4.17;0.90;;;13.20;99.90;;;;;;5082139;28;20933;-66
2023/10/30 05:10:12;;;;;;;3.10;1.00;;;13.30;99.90;;;;;;5066712;28;20479;-67
2023/10/30 05:12:39;;;;;;;4.33;0.90;;;13.40;99.90;;;;;;5064243;28;20459;-67
2023/10/30 05:15:09;;;;;;;1.70;0.90;;;13.40;99.90;;;;;;5067817;28;20497;-66
2023/10/30 05:17:38;;;;;;;2.10;0.70;;;13.40;99.90;;;;;;5075452;28;20486;-67
2023/10/30 05:20:06;;;;;;;7.90;1.23;;;13.50;99.90;;;;;;5058176;28;20582;-67
2023/10/30 05:22:33;;;;;;;6.47;1.20;;;13.50;99.90;;;;;;5069168;28;20564;-66
2023/10/30 05:25:01;;;;;;;2.87;0.90;;;13.60;99.90;;;;;;5066198;28;20475;-66
2023/10/30 05:27:28;;;;;;;2.57;0.80;;;13.50;99.90;;;;;;5032717;28;20745;-66
2023/10/30 05:29:55;;;;;;;1.60;0.80;;;13.50;99.90;;;;;;5051650;28;20571;-66
2023/10/30 05:32:22;;;;;;;7.03;1.30;;;13.40;99.90;;;;;;5070018;28;20572;-66
2023/10/30 05:34:52;;;;;;;1.57;0.73;;;13.30;99.90;;;;;;5067301;28;20482;-66
2023/10/30 05:37:19;;;;;;;17.07;2.50;;;13.30;99.90;;;;;;5059125;28;20486;-66
2023/10/30 05:39:46;;;;;;;1.80;0.80;;;13.30;99.90;;;;;;5054936;28;21035;-66
2023/10/30 05:42:13;;;;;;;3.03;0.83;;;13.40;99.90;;;;;;5057264;28;20494;-66
2023/10/30 05:44:40;;;;;;;1.60;0.70;;;13.40;99.90;;;;;;5053863;28;20574;-67
2023/10/30 05:47:07;;;;;;;3.00;1.00;;;13.40;99.90;;;;;;5053418;28;20475;-67
2023/10/30 05:49:34;;;;;;;1.70;0.90;;;13.40;99.90;;;;;;5054060;28;20475;-71
2023/10/30 05:52:03;;;;;;;1.90;0.90;;;13.40;99.90;;;;;;5056996;28;20525;-68
2023/10/30 05:54:30;;;;;;;8.40;1.17;;;13.40;99.90;;;;;;5054367;28;20942;-70
2023/10/30 05:56:56;;;;;;;10.90;1.30;;;13.40;99.90;;;;;;5069612;28;20471;-70
2023/10/30 05:59:24;;;;;;;3.30;0.80;;;13.40;99.90;;;;;;5047369;28;20490;-68
2023/10/30 06:01:50;;;;;;;3.50;0.97;;;13.30;99.90;;;;;;5060532;28;20704;-70
2023/10/30 06:04:17;;;;;;;4.00;1.00;;;13.30;99.90;;;;;;5051290;28;20512;-68
2023/10/30 06:06:44;;;;;;;6.90;1.20;;;13.30;99.90;;;;;;5064259;28;20485;-69
2023/10/30 06:09:12;;;;;;;2.47;0.90;;;13.30;99.90;;;;;;5090649;28;20481;-69
2023/10/30 06:11:39;;;;;;;4.17;1.60;;;13.20;99.90;;;;;;5059186;28;21308;-69
2023/10/30 06:14:06;;;;;;;4.17;2.30;;;13.20;99.90;;;;;;5055219;28;21304;-70
2023/10/30 06:16:32;;;;;;;2.17;0.90;;;13.20;99.90;;;;;;5087717;28;20482;-68
2023/10/30 06:18:59;;;;;;;3.10;0.93;;;13.10;99.90;;;;;;5049703;28;20445;-69
2023/10/30 06:21:26;;;;;;;3.00;1.00;;;13.10;99.90;;;;;;5053394;28;20497;-68
2023/10/30 06:23:53;;;;;;;3.40;1.10;;;13.00;99.90;;;;;;5066886;28;20456;-69
2023/10/30 06:26:21;;;;;;;7.93;1.40;;;13.00;99.90;;;;;;5047196;28;20558;-70
2023/10/30 06:28:48;;;;;;;1.63;0.77;;;13.00;99.90;;;;;;5071253;28;20465;-68
2023/10/30 06:31:15;;;;;;;7.40;1.70;;;13.00;99.90;;;;;;5058510;28;21150;-70
2023/10/30 06:33:42;;;;;;;3.07;1.03;;;13.00;99.90;;;;;;5055961;28;20572;-69
2023/10/30 06:36:09;;;;;;;1.80;1.10;;;13.10;99.90;;;;;;5072765;28;20574;-68
2023/10/30 06:38:36;;;;;;;7.43;1.27;;;13.20;99.90;;;;;;5045808;28;20758;-69
2023/10/30 06:41:04;;;;;;;7.13;1.20;;;13.40;99.90;;;;;;5068103;28;20588;-69
2023/10/30 06:43:33;;;;;;;3.40;1.10;;;13.50;99.90;;;;;;5061850;28;20875;-69
2023/10/30 06:46:01;;;;;;;2.73;1.10;;;13.60;99.90;;;;;;5041335;28;20544;-70
2023/10/30 06:48:28;;;;;;;2.90;1.37;;;13.60;99.90;;;;;;5074566;28;20475;-69
2023/10/30 06:50:55;;;;;;;2.73;0.93;;;13.70;99.90;;;;;;5062227;28;20483;-69
2023/10/30 06:53:22;;;;;;;2.47;1.10;;;13.60;99.90;;;;;;5062974;28;21377;-69
2023/10/30 06:55:49;;;;;;;2.83;1.00;;;13.50;99.90;;;;;;5079555;28;20506;-70
2023/10/30 06:58:16;;;;;;;3.60;1.27;;;;;;;;;;5075158;28;20548;-68
2023/10/30 07:00:45;;;;;;;7.30;1.60;;;13.40;99.90;;;;;;5072794;28;20473;-66
2023/10/30 07:03:12;;;;;;;2.43;1.53;;;13.30;99.90;;;;;;5041164;28;20574;-66
2023/10/30 07:05:39;;;;;;;11.13;2.57;;;13.20;99.90;;;;;;5075048;28;20552;-67
2023/10/30 07:08:06;;;;;;;3.23;1.10;;;13.20;99.90;;;;;;5074209;28;20468;-66
2023/10/30 07:10:33;;;;;;;2.53;1.33;;;13.20;99.90;;;;;;5036796;28;20568;-65
2023/10/30 07:12:59;;;;;;;6.60;1.87;;;13.10;99.90;;;;;;5069871;28;21326;-66
2023/10/30 07:15:27;;;;;;;1.77;1.00;;;13.10;99.90;;;;;;5053317;28;20556;-66
2023/10/30 07:17:57;;;;;;;2.13;1.47;;;13.00;99.90;;;;;;5080727;28;20559;-66
2023/10/30 07:20:24;;;;;;;2.20;1.63;;;;;;;;;;5077809;28;20560;-65
2023/10/30 07:22:52;;;;;;;2.00;1.27;;;;;;;;;;5059978;28;21149;-65
2023/10/30 07:25:18;;;;;;;1.80;1.20;;;13.00;99.90;;;;;;5056780;28;20839;-65
2023/10/30 07:27:45;;;;;;;2.20;1.30;;;13.10;99.90;;;;;;5075332;28;20601;-66
2023/10/30 07:30:13;;;;;;;1.60;0.90;;;12.90;99.90;;;;;;5061134;28;20493;-66
2023/10/30 07:32:41;;;;;;;1.60;0.80;;;;;;;;;;5058193;28;20560;-65
2023/10/30 07:35:09;;;;;;;7.47;1.30;;;13.00;99.90;;;;;;5032142;28;20830;-66
2023/10/30 07:37:36;;;;;;;8.60;1.60;;;13.10;99.90;;;;;;5071765;28;20569;-66
2023/10/30 07:40:03;;;;;;;2.93;1.00;;;13.10;99.90;;;;;;5062377;28;20554;-65
2023/10/30 07:42:30;;;;;;;3.17;1.20;;;13.10;99.90;;;;;;5058863;28;20566;-67
2023/10/30 07:44:57;;;;;;;1.60;0.80;;;13.00;99.90;;;;;;5077995;28;20928;-67
2023/10/30 07:47:24;;;;;;;6.90;1.43;;;13.00;99.90;;;;;;5057113;28;20568;-67
2023/10/30 07:49:50;;;;;;;1.87;0.93;;;12.90;99.90;;;;;;5073056;28;20578;-66
2023/10/30 07:52:19;;;;;;;2.00;1.43;;;13.00;99.90;;;;;;5054424;28;20870;-66
2023/10/30 07:54:45;;;;;;;2.30;1.00;;;13.00;99.90;;;;;;5057787;28;20562;-66
2023/10/30 07:57:12;;;;;;;1.90;1.30;;;13.10;99.90;;;;;;5055370;28;20479;-66
2023/10/30 07:59:41;;;;;;;2.60;1.40;;;13.10;99.90;;;;;;5040853;28;20489;-66
2023/10/30 08:02:07;;;;;;;2.10;1.00;;;13.10;99.90;;;;;;5061067;28;20524;-66
2023/10/30 08:04:34;;;;;;;2.77;1.23;;;13.20;99.90;;;;;;5049559;28;21136;-67
2023/10/30 08:07:01;;;;;;;6.23;1.23;;;13.20;99.90;;;;;;5077180;28;20471;-66
2023/10/30 08:09:29;;;;;;;18.83;2.10;;;13.10;99.90;;;;;;5059455;28;20536;-68
2023/10/30 08:11:56;;;;;;;1.50;0.60;;;13.20;99.90;;;;;;5059185;28;20482;-66
2023/10/30 08:14:24;;;;;;;9.33;1.40;;;13.20;99.90;;;;;;5059926;28;20857;-66
2023/10/30 08:16:50;;;;;;;1.70;0.90;;;13.10;99.90;;;;;;5048615;28;21860;-66
2023/10/30 08:19:17;;;;;;;1.70;0.90;;;13.10;99.90;;;;;;5060714;28;20550;-66
2023/10/30 08:21:44;;;;;;;8.20;1.27;;;13.10;99.90;;;;;;5057121;28;20756;-66
2023/10/30 08:24:11;;;;;;;3.00;1.10;;;13.10;99.90;;;;;;5060270;28;20515;-66
2023/10/30 08:26:39;;;;;;;2.23;1.07;;;13.10;99.90;;;;;;5057442;28;20557;-66
2023/10/30 08:29:07;;;;;;;2.17;1.23;;;13.20;99.90;;;;;;5058326;28;20486;-66
2023/10/30 08:31:33;;;;;;;1.60;0.70;;;13.10;99.90;;;;;;5059264;28;20511;-67
2023/10/30 08:34:01;;;;;;;5.07;1.20;;;13.10;99.90;;;;;;5059097;28;20881;-66
2023/10/30 08:36:28;;;;;;;2.10;1.03;;;13.10;99.90;;;;;;5057606;28;21122;-67
2023/10/30 08:38:54;;;;;;;2.50;1.23;;;13.00;99.90;;;;;;5055566;28;20445;-66
2023/10/30 08:41:22;;;;;;;1.70;0.90;;;12.90;99.90;;;;;;5044396;28;20578;-67
2023/10/30 08:43:50;;;;;;;1.73;0.93;;;13.00;99.90;;;;;;5078828;28;20478;-66
2023/10/30 08:46:18;;;;;;;1.80;0.80;;;13.00;99.90;;;;;;5066494;28;20570;-66
2023/10/30 08:48:45;;;;;;;6.50;1.33;;;13.10;99.90;;;;;;5067443;28;20478;-66
2023/10/30 08:51:12;;;;;;;1.70;0.80;;;13.00;99.90;;;;;;5056635;28;20481;-65
2023/10/30 08:53:39;;;;;;;1.80;0.80;;;13.20;99.90;;;;;;5069985;28;20444;-66
2023/10/30 08:56:07;;;;;;;3.40;1.23;;;13.20;99.90;;;;;;5073755;28;20864;-65
2023/10/30 08:58:33;;;;;;;3.30;0.90;;;13.30;99.90;;;;;;5043787;28;21086;-66
2023/10/30 09:01:01;;;;;;;1.90;0.90;;;13.30;99.90;;;;;;5042589;28;21187;-66
2023/10/30 09:03:28;;;;;;;5.97;1.10;;;13.40;99.90;;;;;;5065214;28;20501;-66
2023/10/30 09:05:55;;;;;;;1.80;1.00;;;13.50;99.90;;;;;;5081538;28;20484;-66
2023/10/30 09:08:22;;;;;;;1.87;1.00;;;13.50;99.90;;;;;;5068554;28;20630;-66
2023/10/30 09:10:48;;;;;;;4.50;1.00;;;13.60;99.90;;;;;;5072292;28;20466;-66
2023/10/30 09:13:15;;;;;;;2.17;1.20;;;13.50;99.90;;;;;;5066051;28;20554;-66
2023/10/30 09:15:42;;;;;;;1.97;1.00;;;13.60;99.90;;;;;;5073718;28;20960;-66
2023/10/30 09:18:10;;;;;;;1.57;0.80;;;13.60;99.90;;;;;;5044142;28;20562;-66
2023/10/30 09:20:37;;;;;;;6.63;1.20;;;13.60;99.90;;;;;;5049836;28;20538;-66
2023/10/30 09:23:05;;;;;;;36.07;3.47;;;;;;;;;;5069521;28;20486;-66
2023/10/30 09:25:32;;;;;;;2.13;1.43;;;13.60;99.90;;;;;;5055909;28;20586;-66
2023/10/30 09:27:58;;;;;;;6.73;1.30;;;13.70;99.90;;;;;;5070852;28;20469;-66
2023/10/30 09:30:30;;;;;;;12.20;1.43;;;13.70;99.90;;;;;;5064704;28;20554;-66
2023/10/30 09:32:57;;;;;;;1.87;0.80;;;13.70;99.90;;;;;;5042266;28;20466;-66
2023/10/30 09:35:29;;;;;;;2.53;0.60;;;13.80;99.90;;;;;;5029618;28;20573;-66
2023/10/30 09:37:57;;;;;;;1.87;0.83;;;14.00;99.90;;;;;;5062769;28;20509;-66
2023/10/30 09:40:26;;;;;;;4.33;0.80;;;13.90;99.90;;;;;;5081099;28;20629;-66
2023/10/30 09:42:54;;;;;;;2.73;0.70;;;13.90;99.90;;;;;;5062037;28;20987;-65
2023/10/30 09:45:23;;;;;;;3.70;0.80;;;14.00;99.90;;;;;;5048287;28;20454;-66
2023/10/30 09:47:52;;;;;;;1.77;0.90;;;14.10;99.90;;;;;;5051497;28;20559;-66
2023/10/30 09:50:19;;;;;;;3.70;1.00;;;14.20;99.90;;;;;;5075421;28;20440;-66
2023/10/30 09:52:49;;;;;;;3.30;1.47;;;14.30;99.90;;;;;;5057376;28;20541;-66
2023/10/30 09:55:18;;;;;;;5.47;1.10;;;14.30;99.90;;;;;;5062932;28;20770;-66
2023/10/30 09:57:47;;;;;;;7.83;1.30;;;14.40;99.90;;;;;;5062227;28;20456;-66
2023/10/30 10:00:15;;;;;;;3.10;0.80;;;14.30;99.90;;;;;;5048325;28;21186;-66
2023/10/30 10:02:43;;;;;;;1.80;0.80;;;14.30;99.90;;;;;;5072022;28;20481;-65
2023/10/30 10:05:21;;;;;;;5.73;1.00;;;14.40;99.90;;;;;;5058258;28;20494;-65
2023/10/30 10:07:52;;;;;;;1.70;0.80;;;14.60;99.90;;;;;;5042116;28;20482;-66
2023/10/30 10:10:19;;;;;;;1.60;0.70;;;14.70;99.90;;;;;;5033988;28;20471;-66
2023/10/30 10:12:50;;;;;;;8.50;1.10;;;14.70;99.90;;;;;;5048260;28;20816;-66
2023/10/30 10:15:20;;;;;;;1.93;0.70;;;14.80;99.90;;;;;;5070134;28;20920;-66
2023/10/30 10:17:48;;;;;;;1.60;0.70;;;14.90;99.90;;;;;;5057828;28;20483;-67
2023/10/30 10:20:15;;;;;;;11.77;2.10;;;15.00;99.90;;;;;;5058353;28;20740;-67
2023/10/30 10:22:42;;;;;;;2.10;0.97;;;15.00;99.90;;;;;;5058296;28;20889;-67
2023/10/30 10:25:11;;;;;;;19.20;1.97;;;15.10;99.90;;;;;;5031582;28;20528;-67
2023/10/30 10:27:38;;;;;;;2.20;0.80;;;15.20;99.90;;;;;;5061366;28;21032;-67
2023/10/30 10:30:07;;;;;;;1.70;0.80;;;15.30;99.90;;;;;;5055073;28;20466;-67
2023/10/30 10:32:34;;;;;;;2.03;1.00;;;15.30;99.90;;;;;;5075176;28;20471;-67
2023/10/30 10:35:02;;;;;;;2.67;1.47;;;15.30;99.90;;;;;;5059797;28;20436;-67
2023/10/30 10:37:30;;;;;;;2.30;2.07;;;15.40;99.90;;;;;;5061834;28;20505;-68
2023/10/30 10:39:57;;;;;;;3.50;1.03;;;15.40;99.90;;;;;;5059821;28;20478;-67
2023/10/30 10:42:27;;;;;;;2.00;1.03;;;15.40;99.90;;;;;;5054739;28;20565;-67
2023/10/30 10:44:56;;;;;;;1.73;1.03;;;15.40;99.90;;;;;;5059988;28;20487;-67
2023/10/30 10:47:33;;;;;;;1.80;0.80;;;15.50;99.90;;;;;;5050640;28;20986;-67
2023/10/30 10:50:00;;;;;;;1.70;0.77;;;15.60;99.90;;;;;;5053598;28;21013;-66
2023/10/30 10:52:37;;;;;;;2.80;0.80;;;15.70;99.90;;;;;;5059912;28;20469;-66
2023/10/30 10:55:07;;;;;;;1.60;0.83;;;15.70;99.90;;;;;;5056573;28;20571;-67
2023/10/30 10:57:46;;;;;;;1.93;1.03;;;15.80;99.90;;;;;;5086537;28;20543;-67
2023/10/30 11:00:15;;;;;;;3.67;0.77;;;15.80;99.90;;;;;;5049720;28;20452;-67
2023/10/30 11:02:45;;;;;;;3.33;0.93;;;15.90;99.90;;;;;;5074731;28;20491;-67
2023/10/30 11:05:12;;;;;;;2.27;0.70;;;15.90;99.90;;;;;;5050733;28;20989;-66
2023/10/30 11:07:46;;;;;;;2.10;1.00;;;16.00;99.90;;;;;;5075657;28;20573;-66
2023/10/30 11:10:18;;;;;;;1.60;0.60;;;16.10;99.90;;;;;;5054418;28;20541;-68
2023/10/30 11:12:57;;;;;;;3.00;0.70;;;16.20;99.90;;;;;;5054428;28;20501;-68
2023/10/30 11:15:30;;;;;;;6.40;1.00;;;16.20;99.90;;;;;;5050221;28;20462;-68
2023/10/30 11:18:18;;;;;;;9.90;1.40;;;16.20;99.90;;;;;;5085302;28;20862;-68
2023/10/30 11:20:46;;;;;;;5.10;1.10;;;16.10;99.90;;;;;;5030642;28;20488;-68
2023/10/30 11:23:13;;;;;;;2.93;1.17;;;16.10;99.90;;;;;;5076739;28;20966;-68
2023/10/30 11:25:53;;;;;;;2.83;0.67;;;16.10;99.90;;;;;;5053701;28;21173;-68
2023/10/30 11:28:23;;;;;;;2.07;0.90;;;16.10;99.90;;;;;;5060038;28;21134;-68
2023/10/30 11:30:51;;;;;;;5.20;1.13;;;15.90;99.90;;;;;;5069651;28;20462;-67
2023/10/30 11:33:19;;;;;;;2.43;0.80;;;15.80;99.90;;;;;;5058904;28;20501;-67
2023/10/30 11:35:46;;;;;;;2.87;0.70;;;15.80;99.90;;;;;;5055872;28;20550;-68
2023/10/30 11:38:16;;;;;;;1.70;0.90;;;15.80;99.90;;;;;;5061224;28;20492;-68
2023/10/30 11:40:44;;;;;;;3.20;1.10;;;15.90;99.90;;;;;;5063053;28;20466;-66
2023/10/30 11:43:12;;;;;;;2.80;0.90;;;16.00;99.90;;;;;;5059758;28;20515;-66
2023/10/30 11:45:41;;;;;;;4.77;1.10;;;15.90;99.90;;;;;;5044715;28;20736;-66
2023/10/30 11:48:08;;;;;;;1.77;0.90;;;16.10;99.90;;;;;;5044616;28;20537;-66
2023/10/30 11:50:36;;;;;;;1.70;0.80;;;16.10;99.90;;;;;;5062164;28;20476;-67
2023/10/30 11:53:10;;;;;;;2.93;1.00;;;16.10;99.90;;;;;;5058210;28;21671;-66
2023/10/30 11:55:38;;;;;;;6.83;4.40;;;16.20;99.90;;;;;;5080112;28;20485;-66
2023/10/30 11:58:04;;;;;;;4.10;2.40;;;16.20;99.90;;;;;;5065933;28;20570;-66
2023/10/30 12:00:31;;;;;;;4.10;1.50;;;16.20;99.90;;;;;;5025798;28;20578;-66
2023/10/30 12:03:00;;;;;;;4.10;1.17;;;16.10;99.90;;;;;;5052899;28;20987;-66
2023/10/30 12:05:28;;;;;;;3.70;1.50;;;16.10;99.90;;;;;;5062104;28;20474;-66
2023/10/30 12:07:54;;;;;;;4.73;1.40;;;16.10;99.90;;;;;;5057024;28;20501;-66
2023/10/30 12:10:22;;;;;;;3.23;1.07;;;16.30;99.90;;;;;;5050426;28;21056;-66
2023/10/30 12:12:49;;;;;;;2.77;1.40;;;16.30;99.90;;;;;;5049666;28;20459;-66
2023/10/30 12:15:15;;;;;;;8.40;1.73;;;16.40;99.90;;;;;;5079304;28;20506;-67
2023/10/30 12:17:42;;;;;;;21.93;2.00;;;16.40;99.90;;;;;;5053730;28;20471;-67
2023/10/30 12:20:11;;;;;;;18.73;2.27;;;16.30;99.90;;;;;;5042355;28;20489;-67
2023/10/30 12:22:41;;;;;;;11.83;1.70;;;16.30;99.90;;;;;;5072145;28;20478;-69
2023/10/30 12:25:09;;;;;;;2.17;1.20;;;;;;;;;;5055152;28;20920;-66
2023/10/30 12:27:36;;;;;;;5.10;1.20;;;16.20;99.90;;;;;;5052280;28;20560;-66
2023/10/30 12:30:10;;;;;;;19.43;2.80;;;16.20;99.90;;;;;;5049019;28;20456;-66
2023/10/30 12:32:37;;;;;;;1.80;1.20;;;16.10;99.90;;;;;;5049285;28;20576;-67
2023/10/30 12:35:13;;;;;;;3.70;1.40;;;16.10;99.90;;;;;;5042026;28;21220;-67
2023/10/30 12:37:40;;;;;;;2.50;1.70;;;16.20;99.90;;;;;;5076086;28;21072;-67
2023/10/30 12:40:09;;;;;;;4.20;3.90;;;16.30;99.90;;;;;;5050556;28;20481;-67
2023/10/30 12:42:37;;;;;;;28.77;3.53;;;16.40;99.90;;;;;;5069454;28;20477;-67
2023/10/30 12:45:06;;;;;;;3.80;2.17;;;16.40;99.90;;;;;;5053508;28;20614;-67
2023/10/30 12:47:33;;;;;;;9.03;1.70;;;16.50;99.90;;;;;;5052523;28;20820;-67
2023/10/30 12:50:00;;;;;;;7.30;2.00;;;16.60;99.90;;;;;;5051157;28;20857;-67